createdAt,value
2022-12-01T07:07:59.438Z,128.00
2022-12-01T07:17:12.803Z,160.00
2022-12-01T07:35:49.162Z,280.00
2022-12-01T07:36:51.175Z,284.00
2022-12-01T07:37:53.184Z,284.00
2022-12-01T07:38:55.210Z,280.00
2022-12-01T07:39:57.226Z,288.00
2022-12-01T07:40:59.235Z,276.00
2022-12-01T07:42:01.390Z,276.00
2022-12-01T07:43:03.385Z,276.00
2022-12-01T07:44:05.376Z,268.00
2022-12-01T07:45:07.388Z,272.00
2022-12-01T07:46:09.472Z,296.00
2022-12-01T07:47:11.481Z,288.00
2022-12-01T07:48:13.526Z,272.00
2022-12-01T07:49:15.558Z,268.00
2022-12-01T07:50:17.580Z,280.00
2022-12-01T07:51:19.618Z,296.00
2022-12-01T07:52:21.666Z,288.00
2022-12-01T07:53:23.655Z,296.00
2022-12-01T07:54:25.681Z,308.00
2022-12-01T07:55:27.687Z,348.00
2022-12-01T07:56:29.715Z,360.00
2022-12-01T07:57:31.731Z,356.00
2022-12-01T07:58:33.755Z,348.00
2022-12-01T08:00:37.875Z,352.00
2022-12-01T08:06:50.191Z,364.00
2022-12-01T08:07:52.285Z,380.00
2022-12-01T08:08:54.301Z,420.00
2022-12-01T08:09:56.309Z,440.00
2022-12-01T08:10:58.288Z,456.00
2022-12-01T08:12:00.316Z,468.00
2022-12-01T08:14:04.350Z,504.00
2022-12-01T08:15:06.390Z,512.00
2022-12-01T08:16:08.493Z,536.00
2022-12-01T08:17:10.532Z,580.00
2022-12-01T08:18:12.570Z,632.00
2022-12-01T08:19:14.578Z,692.00
2022-12-01T08:20:22.287Z,740.00
2022-12-01T08:21:17.999Z,828.00
2022-12-01T08:22:20.005Z,888.00
2022-12-01T08:23:22.041Z,936.00
2022-12-01T08:24:24.057Z,1016.00
2022-12-01T08:25:26.062Z,1176.00
2022-12-01T08:26:28.091Z,1228.00
2022-12-01T08:27:30.093Z,1196.00
2022-12-01T08:28:32.109Z,1080.00
2022-12-01T08:29:34.136Z,1052.00
2022-12-01T08:30:36.131Z,1060.00
2022-12-01T08:31:47.315Z,1048.00
2022-12-01T08:32:39.421Z,1080.00
2022-12-01T08:35:45.548Z,1096.00
2022-12-01T08:36:47.578Z,1096.00
2022-12-01T08:37:49.587Z,1136.00
2022-12-01T08:38:51.604Z,1100.00
2022-12-01T08:39:53.610Z,1132.00
2022-12-01T08:40:55.640Z,1192.00
2022-12-01T08:44:01.973Z,1248.00
2022-12-01T08:47:07.059Z,1236.00
2022-12-01T08:48:09.068Z,1200.00
2022-12-01T08:49:11.067Z,1240.00
2022-12-01T08:50:13.074Z,1208.00
2022-12-01T08:51:15.101Z,1220.00
2022-12-01T08:52:17.132Z,1180.00
2022-12-01T08:53:19.130Z,1072.00
2022-12-01T08:54:21.149Z,1112.00
2022-12-01T08:55:23.158Z,1112.00
2022-12-01T08:56:25.189Z,1136.00
2022-12-01T08:57:27.217Z,1128.00
2022-12-01T08:58:29.226Z,1144.00
2022-12-01T08:59:31.262Z,1092.00
2022-12-01T09:00:33.281Z,1120.00
2022-12-01T09:01:35.360Z,1152.00
2022-12-01T09:02:37.440Z,1140.00
2022-12-01T09:03:39.425Z,1144.00
2022-12-01T09:04:41.614Z,1140.00
2022-12-01T09:05:43.640Z,1164.00
2022-12-01T09:06:45.647Z,1172.00
2022-12-01T09:07:47.730Z,1156.00
2022-12-01T09:08:49.718Z,1120.00
2022-12-01T09:09:51.862Z,1108.00
2022-12-01T09:10:53.861Z,1108.00
2022-12-01T09:11:55.894Z,1120.00
2022-12-01T09:12:57.899Z,1124.00
2022-12-01T09:13:59.914Z,1224.00
2022-12-01T09:15:01.953Z,1224.00
2022-12-01T09:16:04.011Z,1284.00
2022-12-01T09:17:06.040Z,1292.00
2022-12-01T09:18:08.068Z,1324.00
2022-12-01T09:19:11.459Z,1360.00
2022-12-01T09:20:11.705Z,1352.00
2022-12-01T09:21:13.732Z,1400.00
2022-12-01T09:22:15.748Z,1408.00
2022-12-01T09:23:17.785Z,1508.00
2022-12-01T09:24:19.787Z,1396.00
2022-12-01T09:25:21.824Z,1388.00
2022-12-01T09:26:23.836Z,1432.00
2022-12-01T09:27:25.866Z,1380.00
2022-12-01T09:28:27.874Z,1456.00
2022-12-01T09:29:29.877Z,1432.00
2022-12-01T09:30:31.949Z,1400.00
2022-12-01T09:31:34.025Z,1500.00
2022-12-01T09:32:36.076Z,1528.00
2022-12-01T09:33:37.096Z,1548.00
2022-12-01T09:34:39.104Z,1536.00
2022-12-01T09:35:41.155Z,1636.00
2022-12-01T09:36:43.172Z,1636.00
2022-12-01T09:37:45.178Z,1636.00
2022-12-01T09:38:47.239Z,1676.00
2022-12-01T09:39:49.651Z,1760.00
2022-12-01T09:40:50.689Z,1836.00
2022-12-01T09:41:52.745Z,1784.00
2022-12-01T09:42:54.756Z,1872.00
2022-12-01T09:43:56.763Z,1876.00
2022-12-01T09:44:58.792Z,1920.00
2022-12-01T09:46:00.821Z,1944.00
2022-12-01T09:47:02.884Z,1952.00
2022-12-01T09:48:04.853Z,2032.00
2022-12-01T09:49:06.888Z,2148.00
2022-12-01T09:50:08.914Z,2088.00
2022-12-01T09:51:10.967Z,2040.00
2022-12-01T09:52:12.993Z,1932.00
2022-12-01T09:53:15.001Z,1856.00
2022-12-01T09:54:17.012Z,1808.00
2022-12-01T09:55:19.040Z,1888.00
2022-12-01T09:56:21.080Z,1920.00
2022-12-01T09:57:23.088Z,1936.00
2022-12-01T09:58:25.096Z,1936.00
2022-12-01T09:59:27.124Z,1952.00
2022-12-01T10:00:29.122Z,1968.00
2022-12-01T10:01:31.158Z,1904.00
2022-12-01T10:02:33.233Z,1880.00
2022-12-01T10:03:35.227Z,1828.00
2022-12-01T10:04:37.258Z,1796.00
2022-12-01T10:05:56.580Z,1752.00
2022-12-01T10:06:40.763Z,1724.00
2022-12-01T10:07:42.742Z,1780.00
2022-12-01T10:08:44.737Z,1828.00
2022-12-01T10:09:46.967Z,1760.00
2022-12-01T10:10:47.983Z,1696.00
2022-12-01T10:11:50.000Z,1704.00
2022-12-01T10:12:52.029Z,1704.00
2022-12-01T10:13:54.047Z,1724.00
2022-12-01T10:14:56.075Z,1740.00
2022-12-01T10:15:58.136Z,1852.00
2022-12-01T10:17:00.151Z,1988.00
2022-12-01T10:18:02.153Z,2144.00
2022-12-01T10:19:04.191Z,2288.00
2022-12-01T10:20:06.219Z,2156.00
2022-12-01T10:21:08.233Z,2088.00
2022-12-01T10:22:10.269Z,2092.00
2022-12-01T10:23:12.330Z,2152.00
2022-12-01T10:24:14.359Z,2148.00
2022-12-01T10:25:16.371Z,2132.00
2022-12-01T10:26:18.401Z,2128.00
2022-12-01T10:27:20.399Z,2268.00
2022-12-01T10:28:22.431Z,2472.00
2022-12-01T10:29:24.440Z,2396.00
2022-12-01T10:30:26.447Z,2252.00
2022-12-01T10:31:28.487Z,2140.00
2022-12-01T10:32:30.523Z,2240.00
2022-12-01T10:33:32.521Z,2352.00
2022-12-01T10:34:34.530Z,2380.00
2022-12-01T10:35:36.540Z,2372.00
2022-12-01T10:36:38.573Z,2564.00
2022-12-01T10:37:40.661Z,2744.00
2022-12-01T10:38:42.691Z,2664.00
2022-12-01T10:39:44.699Z,2384.00
2022-12-01T10:40:46.711Z,2260.00
2022-12-01T10:41:48.740Z,2180.00
2022-12-01T10:42:50.776Z,2228.00
2022-12-01T10:43:52.784Z,2208.00
2022-12-01T10:44:54.797Z,2108.00
2022-12-01T10:45:56.941Z,2136.00
2022-12-01T10:46:58.942Z,2196.00
2022-12-01T10:48:01.036Z,2220.00
2022-12-01T10:49:03.069Z,2432.00
2022-12-01T10:50:05.137Z,2608.00
2022-12-01T10:51:07.181Z,2696.00
2022-12-01T10:52:09.193Z,2536.00
2022-12-01T10:53:11.227Z,2448.00
2022-12-01T10:54:13.236Z,2396.00
2022-12-01T10:55:15.243Z,2132.00
2022-12-01T10:56:17.256Z,2040.00
2022-12-01T10:57:19.297Z,1964.00
2022-12-01T10:58:21.341Z,2000.00
2022-12-01T10:59:23.345Z,1992.00
2022-12-01T11:00:58.062Z,1940.00
2022-12-01T11:01:26.867Z,1964.00
2022-12-01T11:02:29.076Z,1948.00
2022-12-01T11:03:30.304Z,1960.00
2022-12-01T11:04:31.365Z,2056.00
2022-12-01T11:05:33.373Z,2112.00
2022-12-01T11:06:35.400Z,2096.00
2022-12-01T11:07:37.461Z,2044.00
2022-12-01T11:08:39.477Z,1908.00
2022-12-01T11:09:41.545Z,1856.00
2022-12-01T11:10:43.574Z,1804.00
2022-12-01T11:11:45.630Z,1780.00
2022-12-01T11:12:47.704Z,1768.00
2022-12-01T11:13:49.742Z,1784.00
2022-12-01T11:14:51.752Z,1784.00
2022-12-01T11:15:53.780Z,1796.00
2022-12-01T11:16:55.855Z,1772.00
2022-12-01T11:17:57.899Z,1736.00
2022-12-01T11:19:00.016Z,1716.00
2022-12-01T11:20:02.121Z,1740.00
2022-12-01T11:21:04.123Z,1772.00
2022-12-01T11:22:07.095Z,1836.00
2022-12-01T11:23:08.008Z,1984.00
2022-12-01T11:24:10.045Z,2136.00
2022-12-01T11:25:12.059Z,2004.00
2022-12-01T11:26:14.064Z,2064.00
2022-12-01T11:27:16.073Z,1968.00
2022-12-01T11:28:18.088Z,1892.00
2022-12-01T11:29:20.101Z,1812.00
2022-12-01T11:30:22.121Z,1812.00
2022-12-01T11:31:24.251Z,1776.00
2022-12-01T11:32:26.298Z,1740.00
2022-12-01T11:33:28.329Z,1784.00
2022-12-01T11:34:30.361Z,1812.00
2022-12-01T11:35:32.367Z,1712.00
2022-12-01T11:36:34.380Z,1712.00
2022-12-01T11:37:36.407Z,1664.00
2022-12-01T11:38:38.418Z,1692.00
2022-12-01T11:39:40.480Z,1676.00
2022-12-01T11:40:42.488Z,1712.00
2022-12-01T11:41:44.486Z,1620.00
2022-12-01T11:42:46.514Z,1600.00
2022-12-01T11:44:00.797Z,1676.00
2022-12-01T11:44:51.663Z,1672.00
2022-12-01T11:45:52.125Z,1728.00
2022-12-01T11:47:07.801Z,1888.00
2022-12-01T11:47:55.589Z,1804.00
2022-12-01T11:48:57.623Z,1816.00
2022-12-01T11:49:59.604Z,1768.00
2022-12-01T11:51:01.643Z,1684.00
2022-12-01T11:52:03.659Z,1660.00
2022-12-01T11:53:05.690Z,1624.00
2022-12-01T11:54:07.738Z,1612.00
2022-12-01T11:55:10.301Z,1620.00
2022-12-01T11:56:11.234Z,1692.00
2022-12-01T11:57:33.618Z,1968.00
2022-12-01T11:58:14.685Z,2036.00
2022-12-01T11:59:16.719Z,1916.00
2022-12-01T12:00:18.807Z,2028.00
2022-12-01T12:01:22.267Z,1816.00
2022-12-01T12:02:22.194Z,1900.00
2022-12-01T12:03:24.258Z,1996.00
2022-12-01T12:04:26.237Z,2008.00
2022-12-01T12:05:28.255Z,1964.00
2022-12-01T12:06:45.506Z,1944.00
2022-12-01T12:07:31.748Z,1956.00
2022-12-01T12:08:33.772Z,1988.00
2022-12-01T12:09:39.052Z,1900.00
2022-12-01T12:10:37.244Z,1848.00
2022-12-01T12:11:39.248Z,1740.00
2022-12-01T12:12:41.273Z,1708.00
2022-12-01T12:13:43.272Z,1628.00
2022-12-01T12:14:45.399Z,1572.00
2022-12-01T12:16:49.371Z,1620.00
2022-12-01T12:17:51.397Z,1592.00
2022-12-01T12:18:53.383Z,1616.00
2022-12-01T12:20:11.340Z,1628.00
2022-12-01T12:20:56.859Z,1636.00
2022-12-01T12:21:58.890Z,1588.00
2022-12-01T12:23:00.898Z,1504.00
2022-12-01T12:24:02.909Z,1504.00
2022-12-01T12:25:04.935Z,1484.00
2022-12-01T12:26:06.949Z,1504.00
2022-12-01T12:27:08.956Z,1620.00
2022-12-01T12:28:10.965Z,1672.00
2022-12-01T12:29:14.143Z,1560.00
2022-12-01T12:30:15.087Z,1416.00
2022-12-01T12:31:17.128Z,1492.00
2022-12-01T12:32:19.131Z,1404.00
2022-12-01T12:33:21.142Z,1392.00
2022-12-01T12:34:23.135Z,1328.00
2022-12-01T12:35:25.140Z,1288.00
2022-12-01T12:36:27.192Z,1288.00
2022-12-01T12:37:29.207Z,1368.00
2022-12-01T12:38:31.222Z,1316.00
2022-12-01T12:39:33.251Z,1284.00
2022-12-01T12:40:35.279Z,1296.00
2022-12-01T12:41:37.326Z,1364.00
2022-12-01T12:42:39.356Z,1316.00
2022-12-01T12:43:41.382Z,1292.00
2022-12-01T12:44:43.398Z,1300.00
2022-12-01T12:45:45.414Z,1284.00
2022-12-01T12:46:47.491Z,1236.00
2022-12-01T12:47:49.519Z,1244.00
2022-12-01T12:49:18.125Z,1244.00
2022-12-01T12:49:52.974Z,1212.00
2022-12-01T12:50:54.981Z,1260.00
2022-12-01T12:51:57.018Z,1132.00
2022-12-01T12:52:59.028Z,1104.00
2022-12-01T12:54:01.170Z,1080.00
2022-12-01T12:55:03.153Z,1060.00
2022-12-01T12:56:06.132Z,1068.00
2022-12-01T12:57:07.057Z,1068.00
2022-12-01T12:58:11.319Z,1072.00
2022-12-01T12:59:10.204Z,1096.00
2022-12-01T13:00:12.470Z,1104.00
2022-12-01T13:01:13.390Z,1128.00
2022-12-01T13:02:15.459Z,1084.00
2022-12-01T13:03:17.448Z,1060.00
2022-12-01T13:04:19.456Z,1064.00
2022-12-01T13:05:21.470Z,1052.00
2022-12-01T13:06:23.497Z,1060.00
2022-12-01T13:07:25.595Z,1096.00
2022-12-01T13:08:27.599Z,1084.00
2022-12-01T13:09:29.621Z,1016.00
2022-12-01T13:10:31.649Z,952.00
2022-12-01T13:11:33.679Z,904.00
2022-12-01T13:12:35.699Z,876.00
2022-12-01T13:13:37.731Z,884.00
2022-12-01T13:14:39.810Z,932.00
2022-12-01T13:15:41.896Z,932.00
2022-12-01T13:16:43.895Z,928.00
2022-12-01T13:17:45.952Z,864.00
2022-12-01T13:18:48.009Z,852.00
2022-12-01T13:19:50.138Z,836.00
2022-12-01T13:20:52.195Z,824.00
2022-12-01T13:21:54.238Z,764.00
2022-12-01T13:22:56.256Z,768.00
2022-12-01T13:23:58.252Z,776.00
2022-12-01T13:25:00.921Z,780.00
2022-12-01T13:26:01.832Z,772.00
2022-12-01T13:27:03.843Z,832.00
2022-12-01T13:28:05.858Z,928.00
2022-12-01T13:29:07.866Z,900.00
2022-12-01T13:30:09.973Z,904.00
2022-12-01T13:31:12.046Z,844.00
2022-12-01T13:32:14.047Z,788.00
2022-12-01T13:33:16.089Z,772.00
2022-12-01T13:34:18.118Z,740.00
2022-12-01T13:35:20.126Z,728.00
2022-12-01T13:36:45.811Z,856.00
2022-12-01T13:37:23.585Z,860.00
2022-12-01T13:38:35.572Z,892.00
2022-12-01T13:39:27.674Z,856.00
2022-12-01T13:40:29.696Z,844.00
2022-12-01T13:41:31.729Z,856.00
2022-12-01T13:42:33.759Z,768.00
2022-12-01T13:43:35.804Z,684.00
2022-12-01T13:44:37.822Z,644.00
2022-12-01T13:45:39.824Z,596.00
2022-12-01T13:46:42.006Z,572.00
2022-12-01T13:47:42.992Z,552.00
2022-12-01T13:48:45.009Z,512.00
2022-12-01T13:49:47.479Z,484.00
2022-12-01T13:50:48.577Z,456.00
2022-12-01T13:51:50.605Z,440.00
2022-12-01T13:52:52.703Z,432.00
2022-12-01T13:53:54.721Z,428.00
2022-12-01T13:54:56.745Z,424.00
2022-12-01T13:55:58.807Z,412.00
2022-12-01T13:57:00.851Z,420.00
2022-12-01T13:58:02.853Z,420.00
2022-12-01T13:59:04.878Z,412.00
2022-12-01T14:00:06.935Z,408.00
2022-12-01T14:01:11.485Z,404.00
2022-12-01T14:02:10.428Z,388.00
2022-12-01T14:03:12.600Z,372.00
2022-12-01T14:04:14.647Z,372.00
2022-12-01T14:05:16.662Z,360.00
2022-12-01T14:06:18.694Z,352.00
2022-12-01T14:07:20.788Z,348.00
2022-12-01T14:08:23.409Z,356.00
2022-12-01T14:09:24.689Z,360.00
2022-12-01T14:10:26.707Z,328.00
2022-12-01T14:11:28.716Z,308.00
2022-12-01T14:12:30.725Z,312.00
2022-12-01T14:13:32.735Z,300.00
2022-12-01T14:14:34.749Z,288.00
2022-12-01T14:15:36.763Z,292.00
2022-12-01T14:16:38.783Z,292.00
2022-12-01T14:17:40.807Z,288.00
2022-12-01T14:18:42.829Z,316.00
2022-12-01T14:19:44.866Z,316.00
2022-12-01T14:20:46.876Z,280.00
2022-12-01T14:21:48.883Z,276.00
2022-12-01T14:22:50.916Z,280.00
2022-12-01T14:23:52.926Z,272.00
2022-12-01T14:24:54.962Z,264.00
2022-12-01T14:25:56.969Z,248.00
2022-12-01T14:26:58.976Z,232.00
2022-12-01T14:28:00.984Z,228.00
2022-12-01T14:29:02.994Z,256.00
2022-12-01T14:30:05.037Z,264.00
2022-12-01T14:31:07.142Z,268.00
2022-12-01T14:32:09.183Z,268.00
2022-12-01T14:33:11.199Z,268.00
2022-12-01T14:34:18.601Z,284.00
2022-12-01T14:35:14.809Z,288.00
2022-12-01T14:36:16.832Z,276.00
2022-12-01T14:37:18.844Z,272.00
2022-12-01T14:38:20.843Z,236.00
2022-12-01T14:39:22.881Z,240.00
2022-12-01T14:40:24.913Z,220.00
2022-12-01T14:41:27.519Z,196.00
2022-12-01T14:42:28.445Z,176.00
2022-12-01T14:43:30.479Z,152.00
2022-12-01T14:44:32.543Z,156.00
2022-12-01T14:45:34.561Z,148.00
2022-12-01T14:46:36.640Z,136.00
2022-12-01T14:47:38.623Z,124.00
2022-12-01T14:48:40.633Z,120.00
2022-12-01T14:49:42.640Z,144.00
2022-12-01T14:50:46.831Z,156.00
2022-12-01T14:51:46.829Z,140.00
2022-12-01T14:52:48.843Z,128.00
2022-12-01T14:53:50.854Z,124.00
